createdAt,value
2022-08-21T00:00:54.996Z,89.84
2022-08-21T00:01:55.302Z,89.13
2022-08-21T00:02:55.003Z,89.33
2022-08-21T00:03:55.005Z,89.84
2022-08-21T00:04:57.628Z,90.55
2022-08-21T00:05:55.152Z,91.16
2022-08-21T00:06:54.912Z,91.06
2022-08-21T00:07:55.087Z,91.16
2022-08-21T00:08:54.905Z,91.77
2022-08-21T00:09:54.973Z,92.38
2022-08-21T00:10:54.861Z,92.28
2022-08-21T00:11:54.865Z,92.02
2022-08-21T00:12:54.877Z,91.51
2022-08-21T00:13:54.860Z,91.20
2022-08-21T00:14:54.840Z,91.71
2022-08-21T00:15:54.817Z,91.91
2022-08-21T00:16:54.829Z,92.12
2022-08-21T00:17:54.826Z,92.02
2022-08-21T00:18:55.017Z,92.02
2022-08-21T00:19:54.789Z,92.02
2022-08-21T00:20:54.800Z,91.82
2022-08-21T00:21:55.010Z,92.32
2022-08-21T00:22:55.039Z,92.42
2022-08-21T00:23:54.986Z,92.22
2022-08-21T00:24:54.727Z,92.63
2022-08-21T00:25:54.721Z,93.33
2022-08-21T00:26:54.773Z,92.63
2022-08-21T00:27:54.965Z,92.12
2022-08-21T00:28:54.683Z,91.41
2022-08-21T00:29:54.699Z,90.80
2022-08-21T00:30:54.900Z,90.49
2022-08-21T00:31:54.647Z,91.00
2022-08-21T00:32:54.719Z,91.05
2022-08-21T00:33:59.366Z,90.33
2022-08-21T00:34:54.649Z,90.84
2022-08-21T00:35:54.619Z,91.25
2022-08-21T00:36:54.602Z,91.45
2022-08-21T00:37:55.313Z,90.99
2022-08-21T00:38:54.549Z,90.58
2022-08-21T00:39:54.664Z,90.37
2022-08-21T00:40:54.575Z,90.78
2022-08-21T00:41:54.559Z,90.58
2022-08-21T00:42:54.704Z,90.99
2022-08-21T00:43:54.535Z,91.39
2022-08-21T00:44:54.552Z,91.80
2022-08-21T00:45:54.556Z,92.71
2022-08-21T00:46:54.462Z,92.51
2022-08-21T00:47:54.499Z,92.30
2022-08-21T00:48:57.164Z,92.91
2022-08-21T00:49:54.478Z,93.32
2022-08-21T00:50:54.443Z,93.93
2022-08-21T00:51:54.461Z,94.54
2022-08-21T00:52:54.467Z,94.95
2022-08-21T00:53:54.447Z,94.74
2022-08-21T00:54:54.406Z,93.73
2022-08-21T00:55:54.395Z,92.51
2022-08-21T00:56:54.360Z,92.91
2022-08-21T00:57:54.370Z,92.91
2022-08-21T00:58:54.912Z,92.71
2022-08-21T00:59:54.356Z,93.43
2022-08-21T01:00:54.398Z,94.04
2022-08-21T01:01:54.344Z,93.52
2022-08-21T01:02:54.372Z,92.91
2022-08-21T01:03:54.310Z,93.12
2022-08-21T01:04:54.291Z,93.43
2022-08-21T01:05:54.341Z,93.73
2022-08-21T01:06:54.278Z,93.73
2022-08-21T01:07:54.253Z,93.52
2022-08-21T01:08:54.296Z,93.52
2022-08-21T01:09:54.260Z,93.63
2022-08-21T01:10:54.604Z,93.02
2022-08-21T01:11:54.494Z,92.21
2022-08-21T01:12:54.295Z,91.80
2022-08-21T01:13:54.200Z,91.60
2022-08-21T01:14:54.236Z,91.60
2022-08-21T01:15:54.213Z,92.35
2022-08-21T01:16:54.215Z,92.45
2022-08-21T01:17:54.156Z,92.45
2022-08-21T01:18:54.136Z,92.65
2022-08-21T01:19:54.146Z,92.76
2022-08-21T01:20:54.102Z,92.96
2022-08-21T01:21:55.001Z,93.31
2022-08-21T01:22:54.089Z,92.90
2022-08-21T01:23:54.130Z,92.90
2022-08-21T01:24:54.086Z,93.21
2022-08-21T01:25:54.788Z,93.62
2022-08-21T01:26:54.037Z,93.21
2022-08-21T01:27:54.066Z,92.80
2022-08-21T01:28:54.060Z,92.29
2022-08-21T01:29:54.082Z,92.09
2022-08-21T01:30:54.017Z,91.48
2022-08-21T01:31:54.019Z,91.01
2022-08-21T01:32:54.018Z,90.70
2022-08-21T01:33:54.054Z,90.81
2022-08-21T01:34:54.022Z,91.31
2022-08-21T01:35:53.990Z,91.42
2022-08-21T01:36:53.988Z,91.62
2022-08-21T01:37:53.974Z,91.62
2022-08-21T01:38:53.989Z,92.03
2022-08-21T01:39:54.232Z,92.54
2022-08-21T01:40:53.911Z,92.54
2022-08-21T01:41:54.159Z,92.94
2022-08-21T01:42:54.202Z,93.19
2022-08-21T01:43:53.878Z,93.29
2022-08-21T01:44:54.714Z,93.50
2022-08-21T01:45:53.868Z,93.95
2022-08-21T01:46:54.105Z,94.46
2022-08-21T01:47:53.855Z,94.56
2022-08-21T01:48:53.812Z,94.97
2022-08-21T01:49:53.841Z,94.76
2022-08-21T01:50:56.922Z,94.26
2022-08-21T01:51:53.846Z,93.74
2022-08-21T01:52:53.891Z,93.24
2022-08-21T01:53:53.789Z,93.33
2022-08-21T01:54:55.076Z,93.28
2022-08-21T01:55:53.756Z,93.28
2022-08-21T01:56:53.775Z,93.59
2022-08-21T01:57:53.800Z,93.99
2022-08-21T01:58:53.747Z,94.09
2022-08-21T01:59:53.747Z,94.09
2022-08-21T02:00:53.726Z,94.20
2022-08-21T02:01:53.702Z,94.30
2022-08-21T02:02:53.678Z,94.04
2022-08-21T02:03:53.695Z,93.93
2022-08-21T02:04:53.668Z,94.45
2022-08-21T02:05:53.669Z,95.06
2022-08-21T02:06:53.677Z,95.47
2022-08-21T02:07:53.907Z,95.67
2022-08-21T02:08:53.618Z,95.77
2022-08-21T02:09:53.651Z,95.87
2022-08-21T02:10:53.606Z,95.77
2022-08-21T02:11:53.618Z,95.57
2022-08-21T02:12:53.637Z,95.47
2022-08-21T02:13:53.580Z,95.67
2022-08-21T02:14:53.552Z,96.08
2022-08-21T02:15:53.545Z,96.22
2022-08-21T02:16:53.522Z,96.33
2022-08-21T02:17:53.548Z,96.22
2022-08-21T02:18:53.532Z,95.72
2022-08-21T02:19:53.550Z,95.61
2022-08-21T02:20:55.863Z,95.81
2022-08-21T02:21:53.505Z,95.92
2022-08-21T02:22:53.473Z,95.81
2022-08-21T02:23:53.456Z,95.31
2022-08-21T02:24:55.306Z,94.70
2022-08-21T02:25:53.459Z,94.08
2022-08-21T02:26:53.447Z,93.77
2022-08-21T02:27:53.453Z,94.18
2022-08-21T02:28:53.459Z,95.00
2022-08-21T02:29:53.409Z,95.35
2022-08-21T02:30:53.386Z,95.65
2022-08-21T02:31:53.401Z,95.56
2022-08-21T02:32:53.361Z,95.86
2022-08-21T02:33:53.634Z,95.90
2022-08-21T02:34:53.353Z,95.19
2022-08-21T02:35:53.353Z,94.89
2022-08-21T02:36:59.752Z,94.98
2022-08-21T02:37:53.363Z,95.60
2022-08-21T02:38:54.116Z,95.70
2022-08-21T02:39:53.414Z,95.60
2022-08-21T02:40:53.270Z,95.70
2022-08-21T02:41:53.252Z,96.21
2022-08-21T02:42:53.270Z,96.62
2022-08-21T02:44:01.370Z,96.83
2022-08-21T02:44:53.265Z,96.92
2022-08-21T02:45:53.277Z,96.72
2022-08-21T02:46:53.220Z,96.62
2022-08-21T02:47:53.217Z,96.42
2022-08-21T02:48:53.250Z,96.21
2022-08-21T02:49:53.196Z,95.80
2022-08-21T02:50:53.225Z,95.75
2022-08-21T02:51:53.198Z,95.03
2022-08-21T02:52:55.135Z,94.42
2022-08-21T02:53:53.156Z,94.17
2022-08-21T02:54:53.123Z,94.17
2022-08-21T02:55:53.120Z,94.58
2022-08-21T02:56:53.130Z,95.29
2022-08-21T02:57:53.118Z,96.21
2022-08-21T02:58:53.091Z,96.42
2022-08-21T02:59:53.112Z,96.01
2022-08-21T03:00:53.081Z,95.50
2022-08-21T03:01:53.106Z,95.54
2022-08-21T03:02:53.303Z,95.34
2022-08-21T03:03:53.037Z,94.93
2022-08-21T03:04:53.044Z,94.82
2022-08-21T03:05:53.025Z,94.73
2022-08-21T03:06:53.035Z,95.03
2022-08-21T03:07:53.022Z,95.34
2022-08-21T03:08:52.994Z,95.64
2022-08-21T03:09:55.781Z,96.26
2022-08-21T03:10:52.972Z,96.46
2022-08-21T03:11:52.973Z,96.36
2022-08-21T03:12:52.956Z,95.75
2022-08-21T03:13:52.976Z,95.64
2022-08-21T03:14:52.936Z,95.75
2022-08-21T03:15:52.957Z,96.05
2022-08-21T03:16:52.928Z,96.67
2022-08-21T03:17:52.893Z,97.28
2022-08-21T03:18:52.866Z,97.89
2022-08-21T03:19:52.945Z,98.20
2022-08-21T03:20:52.876Z,97.49
2022-08-21T03:21:52.858Z,96.56
2022-08-21T03:22:53.264Z,96.05
2022-08-21T03:23:52.828Z,95.64
2022-08-21T03:24:52.821Z,95.23
2022-08-21T03:25:55.438Z,95.23
2022-08-21T03:26:52.854Z,95.54
2022-08-21T03:27:55.961Z,95.44
2022-08-21T03:28:52.781Z,95.64
2022-08-21T03:29:52.794Z,95.85
2022-08-21T03:30:53.013Z,96.26
2022-08-21T03:31:52.741Z,96.56
2022-08-21T03:32:52.758Z,96.56
2022-08-21T03:33:52.731Z,96.67
2022-08-21T03:34:52.726Z,96.97
2022-08-21T03:35:52.725Z,97.08
2022-08-21T03:36:52.749Z,96.36
2022-08-21T03:37:52.678Z,95.34
2022-08-21T03:38:52.747Z,94.73
2022-08-21T03:39:52.737Z,94.52
2022-08-21T03:40:52.697Z,94.52
2022-08-21T03:41:52.627Z,94.73
2022-08-21T03:42:52.639Z,94.87
2022-08-21T03:43:52.634Z,94.56
2022-08-21T03:44:52.658Z,94.46
2022-08-21T03:45:52.751Z,94.67
2022-08-21T03:46:52.580Z,94.97
2022-08-21T03:47:52.563Z,95.38
2022-08-21T03:48:52.571Z,95.38
2022-08-21T03:49:52.580Z,95.28
2022-08-21T03:50:52.502Z,94.97
2022-08-21T03:51:58.016Z,94.77
2022-08-21T03:52:52.473Z,94.67
2022-08-21T03:53:52.502Z,94.36
2022-08-21T03:54:52.471Z,93.95
2022-08-21T03:55:52.447Z,94.15
2022-08-21T03:56:52.423Z,94.46
2022-08-21T03:57:52.474Z,93.95
2022-08-21T03:58:52.455Z,93.99
2022-08-21T03:59:52.392Z,94.71
2022-08-21T04:00:52.444Z,95.12
2022-08-21T04:01:52.418Z,95.32
2022-08-21T04:02:52.475Z,95.28
2022-08-21T04:03:52.380Z,95.89
2022-08-21T04:04:52.400Z,96.30
2022-08-21T04:05:52.347Z,96.55
2022-08-21T04:06:52.319Z,96.14
2022-08-21T04:07:52.316Z,95.63
2022-08-21T04:08:52.339Z,95.63
2022-08-21T04:09:52.287Z,95.43
2022-08-21T04:10:52.301Z,95.73
2022-08-21T04:11:52.328Z,95.47
2022-08-21T04:12:52.270Z,95.57
2022-08-21T04:13:52.251Z,95.78
2022-08-21T04:14:52.242Z,95.47
2022-08-21T04:16:08.462Z,95.47
2022-08-21T04:16:52.241Z,95.37
2022-08-21T04:17:52.235Z,95.57
2022-08-21T04:18:52.196Z,95.78
2022-08-21T04:19:54.026Z,96.39
2022-08-21T04:20:52.191Z,96.80
2022-08-21T04:21:52.518Z,97.21
2022-08-21T04:22:52.251Z,97.11
2022-08-21T04:23:52.180Z,96.91
2022-08-21T04:24:52.168Z,96.39
2022-08-21T04:25:52.204Z,95.67
2022-08-21T04:26:52.133Z,95.26
2022-08-21T04:27:52.095Z,94.85
2022-08-21T04:28:52.148Z,94.55
2022-08-21T04:29:52.093Z,94.65
2022-08-21T04:30:52.081Z,95.06
2022-08-21T04:31:52.052Z,95.67
2022-08-21T04:32:52.037Z,96.08
2022-08-21T04:33:52.042Z,96.08
2022-08-21T04:34:52.045Z,95.67
2022-08-21T04:35:52.001Z,95.26
2022-08-21T04:36:52.008Z,95.37
2022-08-21T04:37:52.065Z,96.08
2022-08-21T04:38:51.979Z,96.49
2022-08-21T04:39:53.670Z,96.70
2022-08-21T04:40:51.969Z,96.64
2022-08-21T04:41:51.962Z,96.64
2022-08-21T04:42:52.047Z,96.44
2022-08-21T04:43:51.957Z,96.64
2022-08-21T04:44:51.906Z,96.95
2022-08-21T04:45:51.985Z,96.84
2022-08-21T04:46:51.930Z,97.30
2022-08-21T04:47:52.741Z,97.25
2022-08-21T04:48:51.873Z,96.44
2022-08-21T04:49:51.858Z,97.05
2022-08-21T04:50:51.901Z,97.87
2022-08-21T04:51:51.849Z,98.18
2022-08-21T04:52:51.875Z,98.18
2022-08-21T04:53:53.101Z,97.56
2022-08-21T04:54:54.837Z,96.33
2022-08-21T04:55:52.073Z,96.13
2022-08-21T04:56:51.802Z,95.82
2022-08-21T04:57:51.777Z,95.57
2022-08-21T04:58:51.847Z,95.47
2022-08-21T04:59:51.809Z,95.47
2022-08-21T05:00:51.775Z,95.37
2022-08-21T05:01:51.853Z,95.37
2022-08-21T05:02:51.799Z,95.57
2022-08-21T05:03:51.753Z,96.19
2022-08-21T05:04:51.776Z,97.00
2022-08-21T05:05:51.754Z,97.52
2022-08-21T05:06:51.702Z,97.82
2022-08-21T05:07:51.702Z,97.92
2022-08-21T05:08:51.675Z,97.57
2022-08-21T05:09:51.670Z,97.27
2022-08-21T05:10:51.666Z,97.16
2022-08-21T05:11:51.659Z,97.47
2022-08-21T05:12:51.663Z,97.37
2022-08-21T05:13:56.316Z,97.16
2022-08-21T05:14:51.611Z,96.75
2022-08-21T05:15:51.600Z,96.66
2022-08-21T05:16:51.639Z,96.96
2022-08-21T05:17:52.524Z,97.47
2022-08-21T05:18:51.605Z,97.88
2022-08-21T05:19:51.533Z,98.19
2022-08-21T05:20:51.555Z,98.35
2022-08-21T05:21:51.568Z,98.45
2022-08-21T05:22:51.558Z,98.24
2022-08-21T05:23:51.558Z,98.04
2022-08-21T05:24:51.502Z,97.53
2022-08-21T05:25:51.490Z,97.22
2022-08-21T05:26:51.505Z,96.97
2022-08-21T05:27:52.193Z,96.67
2022-08-21T05:28:51.480Z,96.26
2022-08-21T05:29:51.457Z,95.75
2022-08-21T05:30:51.451Z,95.80
2022-08-21T05:31:51.448Z,96.83
2022-08-21T05:32:51.453Z,97.54
2022-08-21T05:33:52.115Z,97.85
2022-08-21T05:34:51.447Z,97.74
2022-08-21T05:35:51.402Z,97.44
2022-08-21T05:36:51.372Z,97.03
2022-08-21T05:37:51.389Z,97.08
2022-08-21T05:38:51.373Z,96.68
2022-08-21T05:40:20.331Z,97.29
2022-08-21T05:40:51.422Z,97.39
2022-08-21T05:41:51.456Z,97.75
2022-08-21T05:42:54.548Z,99.18
2022-08-21T05:43:51.303Z,99.79
2022-08-21T05:44:51.355Z,99.79
2022-08-21T05:45:51.273Z,99.54
2022-08-21T05:46:51.324Z,98.83
2022-08-21T05:47:51.296Z,97.81
2022-08-21T05:48:51.247Z,98.52
2022-08-21T05:49:51.220Z,97.61
2022-08-21T05:50:51.305Z,96.64
2022-08-21T05:51:51.223Z,96.44
2022-08-21T05:52:51.302Z,96.34
2022-08-21T05:53:51.292Z,96.64
2022-08-21T05:54:51.235Z,98.02
2022-08-21T05:55:51.157Z,99.25
2022-08-21T05:56:51.186Z,99.35
2022-08-21T05:57:51.148Z,99.30
2022-08-21T05:58:51.152Z,98.90
2022-08-21T05:59:51.133Z,99.20
2022-08-21T06:00:51.152Z,99.87
2022-08-21T06:01:51.169Z,99.99
2022-08-21T06:02:51.177Z,99.99
2022-08-21T06:03:51.097Z,99.99
2022-08-21T06:04:51.094Z,99.99
2022-08-21T06:05:51.072Z,99.99
2022-08-21T06:06:51.049Z,99.99
2022-08-21T06:07:51.050Z,99.99
2022-08-21T06:08:51.058Z,99.99
2022-08-21T06:09:51.057Z,99.99
2022-08-21T06:10:51.016Z,99.99
2022-08-21T06:11:51.008Z,99.99
2022-08-21T06:12:51.058Z,99.99
2022-08-21T06:13:51.022Z,99.99
2022-08-21T06:14:51.002Z,99.99
2022-08-21T06:15:51.058Z,99.99
2022-08-21T06:16:50.972Z,99.99
2022-08-21T06:17:50.929Z,99.99
2022-08-21T06:18:50.971Z,99.99
2022-08-21T06:19:50.987Z,99.58
2022-08-21T06:20:50.964Z,99.33
2022-08-21T06:21:50.958Z,98.43
2022-08-21T06:22:50.959Z,97.71
2022-08-21T06:23:50.910Z,98.02
2022-08-21T06:24:50.863Z,97.67
2022-08-21T06:25:50.887Z,97.47
2022-08-21T06:26:50.865Z,97.87
2022-08-21T06:27:50.915Z,97.83
2022-08-21T06:28:50.851Z,97.72
2022-08-21T06:29:50.989Z,97.32
2022-08-21T06:30:50.817Z,97.11
2022-08-21T06:31:50.783Z,97.07
2022-08-21T06:32:50.825Z,96.87
2022-08-21T06:33:50.795Z,95.95
2022-08-21T06:34:50.769Z,95.61
2022-08-21T06:35:50.800Z,95.00
2022-08-21T06:36:50.760Z,94.24
2022-08-21T06:37:50.730Z,93.63
2022-08-21T06:38:51.050Z,92.99
2022-08-21T06:39:50.765Z,92.28
2022-08-21T06:40:50.688Z,92.08
2022-08-21T06:41:50.689Z,92.33
2022-08-21T06:42:50.681Z,91.53
2022-08-21T06:43:50.635Z,90.67
2022-08-21T06:44:50.681Z,89.87
2022-08-21T06:45:51.384Z,89.66
2022-08-21T06:46:50.640Z,89.12
2022-08-21T06:47:50.639Z,88.71
2022-08-21T06:48:50.645Z,88.57
2022-08-21T06:49:50.629Z,88.57
2022-08-21T06:50:50.596Z,88.26
2022-08-21T06:51:50.595Z,87.52
2022-08-21T06:52:50.578Z,87.01
2022-08-21T06:53:51.305Z,86.71
2022-08-21T06:54:50.557Z,86.27
2022-08-21T06:55:50.539Z,85.76
2022-08-21T06:56:50.792Z,85.31
2022-08-21T06:57:52.817Z,85.31
2022-08-21T06:58:50.505Z,84.61
2022-08-21T06:59:50.511Z,83.76
2022-08-21T07:00:50.772Z,83.76
2022-08-21T07:01:50.556Z,83.32
2022-08-21T07:02:50.467Z,82.51
2022-08-21T07:03:50.478Z,82.01
2022-08-21T07:04:50.459Z,81.47
2022-08-21T07:05:50.433Z,80.66
2022-08-21T07:06:50.423Z,80.43
2022-08-21T07:07:51.142Z,80.22
2022-08-21T07:08:50.465Z,79.99
2022-08-21T07:09:50.441Z,79.99
2022-08-21T07:10:50.370Z,79.64
2022-08-21T07:11:50.388Z,79.14
2022-08-21T07:12:50.760Z,78.20
2022-08-21T07:13:50.378Z,77.39
2022-08-21T07:14:50.370Z,76.96
2022-08-21T07:15:50.343Z,76.25
2022-08-21T07:16:50.315Z,76.02
2022-08-21T07:17:50.294Z,76.02
2022-08-21T07:18:50.316Z,75.68
2022-08-21T07:19:50.332Z,75.74
2022-08-21T07:20:50.277Z,74.74
2022-08-21T07:21:50.279Z,74.10
2022-08-21T07:22:50.248Z,73.50
2022-08-21T07:23:50.240Z,73.67
2022-08-21T07:24:50.233Z,73.77
2022-08-21T07:25:50.286Z,73.16
2022-08-21T07:26:50.252Z,72.53
2022-08-21T07:27:50.214Z,71.63
2022-08-21T07:28:50.209Z,71.63
2022-08-21T07:29:50.319Z,71.59
2022-08-21T07:30:50.161Z,71.19
2022-08-21T07:31:50.216Z,70.96
2022-08-21T07:32:50.153Z,70.96
2022-08-21T07:33:50.149Z,70.16
2022-08-21T07:34:50.113Z,70.16
2022-08-21T07:35:50.132Z,69.76
2022-08-21T07:36:50.094Z,69.93
2022-08-21T07:37:50.134Z,68.52
2022-08-21T07:38:52.789Z,67.32
2022-08-21T07:39:50.205Z,67.72
2022-08-21T07:40:50.064Z,68.62
2022-08-21T07:41:50.081Z,68.02
2022-08-21T07:42:50.102Z,68.02
2022-08-21T07:43:50.016Z,66.59
2022-08-21T07:44:50.018Z,64.92
2022-08-21T07:45:50.073Z,65.09
2022-08-21T07:46:50.034Z,64.89
2022-08-21T07:47:53.066Z,64.00
2022-08-21T07:48:50.001Z,63.69
2022-08-21T07:49:49.991Z,62.19
2022-08-21T07:50:49.959Z,62.56
2022-08-21T07:51:49.938Z,63.46
2022-08-21T07:52:49.925Z,61.46
2022-08-21T07:53:49.934Z,62.56
2022-08-21T07:54:49.903Z,61.96
2022-08-21T07:55:50.072Z,62.63
2022-08-21T07:56:50.225Z,62.53
2022-08-21T07:57:49.911Z,61.63
2022-08-21T07:58:49.859Z,61.83
2022-08-21T07:59:49.913Z,60.53
2022-08-21T08:00:49.858Z,61.24
2022-08-21T08:01:49.914Z,60.83
2022-08-21T08:02:51.529Z,60.91
2022-08-21T08:03:49.851Z,61.21
2022-08-21T08:04:50.927Z,61.10
2022-08-21T08:05:49.783Z,60.80
2022-08-21T08:06:49.798Z,60.80
2022-08-21T08:07:49.842Z,61.30
2022-08-21T08:08:49.855Z,59.70
2022-08-21T08:09:49.754Z,59.98
2022-08-21T08:10:49.802Z,59.98
2022-08-21T08:11:49.745Z,59.58
2022-08-21T08:12:49.721Z,59.45
2022-08-21T08:13:49.742Z,59.25
2022-08-21T08:14:49.711Z,58.65
2022-08-21T08:15:49.680Z,58.85
2022-08-21T08:16:49.668Z,59.85
2022-08-21T08:17:49.646Z,59.12
2022-08-21T08:18:49.634Z,58.83
2022-08-21T08:19:49.632Z,58.29
2022-08-21T08:20:49.620Z,58.00
2022-08-21T08:21:49.604Z,57.60
2022-08-21T08:22:50.336Z,57.80
2022-08-21T08:23:49.618Z,58.29
2022-08-21T08:24:49.593Z,58.07
2022-08-21T08:25:49.563Z,58.67
2022-08-21T08:26:53.635Z,58.44
2022-08-21T08:27:49.549Z,58.44
2022-08-21T08:28:49.532Z,58.76
2022-08-21T08:29:49.523Z,57.87
2022-08-21T08:30:49.521Z,57.84
2022-08-21T08:31:49.538Z,58.34
2022-08-21T08:32:49.490Z,57.52
2022-08-21T08:33:49.491Z,57.32
2022-08-21T08:34:49.470Z,56.65
2022-08-21T08:35:49.464Z,56.68
2022-08-21T08:36:49.448Z,57.47
2022-08-21T08:37:52.479Z,56.85
2022-08-21T08:38:49.441Z,57.24
2022-08-21T08:39:49.507Z,57.24
2022-08-21T08:40:49.400Z,56.65
2022-08-21T08:41:49.413Z,56.35
2022-08-21T08:42:49.401Z,55.88
2022-08-21T08:43:49.396Z,56.98
2022-08-21T08:44:49.368Z,56.85
2022-08-21T08:45:49.361Z,56.55
2022-08-21T08:46:49.345Z,56.35
2022-08-21T08:47:49.336Z,55.16
2022-08-21T08:48:53.129Z,55.76
2022-08-21T08:49:49.327Z,55.16
2022-08-21T08:50:49.304Z,56.05
2022-08-21T08:51:53.046Z,55.85
2022-08-21T08:52:49.281Z,56.02
2022-08-21T08:53:49.274Z,56.02
2022-08-21T08:54:49.260Z,55.13
2022-08-21T08:55:49.250Z,55.03
2022-08-21T08:56:49.234Z,55.43
2022-08-21T08:57:50.218Z,55.33
2022-08-21T08:58:49.233Z,55.30
2022-08-21T08:59:49.227Z,55.43
2022-08-21T09:00:49.235Z,56.00
2022-08-21T09:01:49.229Z,55.20
2022-08-21T09:02:49.173Z,56.10
2022-08-21T09:03:49.185Z,55.30
2022-08-21T09:04:49.157Z,54.50
2022-08-21T09:05:49.150Z,54.13
2022-08-21T09:06:49.160Z,54.73
2022-08-21T09:07:49.144Z,55.13
2022-08-21T09:08:49.117Z,54.93
2022-08-21T09:09:49.103Z,55.53
2022-08-21T09:10:49.084Z,55.23
2022-08-21T09:11:49.089Z,54.63
2022-08-21T09:12:49.098Z,55.53
2022-08-21T09:13:49.060Z,54.63
2022-08-21T09:14:49.049Z,55.33
2022-08-21T09:15:49.049Z,55.93
2022-08-21T09:16:49.030Z,55.35
2022-08-21T09:17:49.023Z,55.55
2022-08-21T09:18:49.005Z,55.68
2022-08-21T09:19:49.002Z,55.98
2022-08-21T09:20:48.990Z,55.58
2022-08-21T09:21:48.984Z,55.88
2022-08-21T09:22:48.972Z,55.68
2022-08-21T09:23:48.994Z,55.48
2022-08-21T09:24:52.019Z,53.76
2022-08-21T09:25:48.969Z,53.99
2022-08-21T09:26:48.932Z,54.68
2022-08-21T09:27:48.926Z,53.99
2022-08-21T09:28:48.921Z,54.79
2022-08-21T09:29:48.900Z,54.38
2022-08-21T09:30:48.902Z,54.19
2022-08-21T09:31:48.886Z,54.49
2022-08-21T09:32:48.866Z,54.19
2022-08-21T09:33:48.881Z,53.49
2022-08-21T09:34:48.836Z,53.39
2022-08-21T09:35:48.845Z,53.69
2022-08-21T09:36:48.826Z,54.49
2022-08-21T09:37:48.819Z,53.09
2022-08-21T09:38:48.819Z,52.99
2022-08-21T09:39:49.039Z,53.36
2022-08-21T09:40:48.794Z,53.56
2022-08-21T09:41:48.775Z,53.06
2022-08-21T09:42:48.768Z,53.27
2022-08-21T09:43:48.750Z,53.04
2022-08-21T09:44:48.738Z,53.64
2022-08-21T09:45:48.775Z,52.91
2022-08-21T09:46:48.720Z,53.31
2022-08-21T09:47:48.730Z,53.28
2022-08-21T09:48:48.704Z,53.39
2022-08-21T09:49:48.696Z,53.19
2022-08-21T09:50:48.693Z,53.09
2022-08-21T09:51:48.664Z,52.39
2022-08-21T09:52:48.695Z,52.19
2022-08-21T09:53:48.676Z,51.22
2022-08-21T09:54:48.645Z,53.41
2022-08-21T09:55:48.639Z,53.61
2022-08-21T09:56:48.623Z,53.91
2022-08-21T09:57:50.520Z,51.82
2022-08-21T09:58:48.622Z,52.12
2022-08-21T09:59:48.592Z,51.89
2022-08-21T10:00:48.615Z,52.39
2022-08-21T10:01:48.579Z,52.89
2022-08-21T10:02:48.571Z,51.50
2022-08-21T10:03:48.538Z,50.90
2022-08-21T10:04:48.519Z,50.68
2022-08-21T10:05:48.535Z,49.98
2022-08-21T10:06:48.530Z,49.78
2022-08-21T10:07:48.524Z,49.38
2022-08-21T10:08:48.506Z,50.48
2022-08-21T10:09:48.479Z,50.68
2022-08-21T10:10:48.462Z,50.65
2022-08-21T10:11:48.472Z,49.96
2022-08-21T10:12:48.455Z,50.45
2022-08-21T10:13:48.446Z,49.26
2022-08-21T10:14:48.423Z,49.66
2022-08-21T10:15:48.422Z,51.15
2022-08-21T10:16:48.407Z,51.15
2022-08-21T10:17:48.396Z,51.05
2022-08-21T10:18:48.390Z,50.35
2022-08-21T10:19:48.378Z,50.45
2022-08-21T10:20:48.370Z,50.93
2022-08-21T10:21:49.113Z,51.12
2022-08-21T10:22:48.361Z,50.13
2022-08-21T10:23:48.350Z,50.13
2022-08-21T10:24:48.326Z,49.24
2022-08-21T10:25:50.429Z,50.23
2022-08-21T10:26:48.301Z,49.14
2022-08-21T10:27:48.296Z,49.44
2022-08-21T10:28:48.307Z,49.41
2022-08-21T10:29:48.285Z,49.32
2022-08-21T10:30:48.249Z,49.02
2022-08-21T10:31:48.264Z,48.52
2022-08-21T10:32:48.235Z,49.32
2022-08-21T10:33:48.238Z,49.21
2022-08-21T10:34:48.221Z,49.21
2022-08-21T10:35:48.215Z,48.62
2022-08-21T10:36:48.191Z,49.51
2022-08-21T10:37:48.194Z,48.52
2022-08-21T10:38:58.593Z,48.13
2022-08-21T10:39:48.221Z,48.22
2022-08-21T10:40:48.142Z,48.82
2022-08-21T10:41:48.149Z,48.02
2022-08-21T10:42:48.136Z,47.63
2022-08-21T10:43:48.124Z,48.02
2022-08-21T10:44:48.116Z,47.23
2022-08-21T10:45:48.124Z,47.92
2022-08-21T10:46:48.093Z,48.92
2022-08-21T10:47:48.079Z,48.10
2022-08-21T10:48:50.005Z,49.09
2022-08-21T10:49:48.208Z,48.20
2022-08-21T10:50:48.099Z,47.78
2022-08-21T10:51:48.087Z,47.68
2022-08-21T10:52:48.075Z,47.31
2022-08-21T10:53:48.073Z,48.20
2022-08-21T10:54:48.030Z,48.10
2022-08-21T10:55:48.028Z,48.90
2022-08-21T10:56:47.993Z,48.27
2022-08-21T10:57:48.082Z,47.68
2022-08-21T10:58:48.009Z,48.27
2022-08-21T10:59:47.963Z,49.05
2022-08-21T11:00:48.017Z,47.86
2022-08-21T11:01:48.008Z,47.96
2022-08-21T11:02:47.969Z,46.84
2022-08-21T11:03:47.943Z,46.64
2022-08-21T11:04:50.203Z,47.34
2022-08-21T11:05:50.756Z,47.63
2022-08-21T11:06:48.145Z,46.45
2022-08-21T11:07:48.115Z,47.14
2022-08-21T11:08:47.938Z,46.64
2022-08-21T11:09:47.886Z,46.35
2022-08-21T11:10:59.382Z,45.75
2022-08-21T11:11:59.068Z,45.85
2022-08-21T11:12:47.845Z,46.94
2022-08-21T11:13:47.823Z,46.64
2022-08-21T11:14:50.002Z,47.24
2022-08-21T11:15:47.825Z,47.02
2022-08-21T11:16:47.807Z,47.02
2022-08-21T11:17:47.796Z,46.82
2022-08-21T11:18:47.996Z,46.94
2022-08-21T11:19:47.746Z,46.74
2022-08-21T11:20:47.769Z,46.07
2022-08-21T11:21:47.740Z,46.47
2022-08-21T11:22:52.486Z,47.75
2022-08-21T11:23:47.741Z,47.86
2022-08-21T11:24:47.737Z,47.16
2022-08-21T11:25:47.688Z,48.15
2022-08-21T11:26:47.676Z,47.14
2022-08-21T11:27:47.711Z,47.83
2022-08-21T11:28:47.681Z,47.24
2022-08-21T11:29:47.652Z,46.23
2022-08-21T11:30:47.660Z,46.62
2022-08-21T11:31:47.626Z,45.23
2022-08-21T11:32:47.637Z,45.83
2022-08-21T11:33:47.608Z,45.90
2022-08-21T11:34:47.608Z,46.40
2022-08-21T11:35:47.599Z,46.01
2022-08-21T11:36:47.612Z,46.01
2022-08-21T11:37:47.556Z,45.31
2022-08-21T11:38:47.565Z,44.62
2022-08-21T11:39:47.612Z,45.59
2022-08-21T11:40:47.538Z,45.41
2022-08-21T11:41:47.796Z,44.02
2022-08-21T11:42:48.237Z,44.13
2022-08-21T11:43:47.518Z,46.33
2022-08-21T11:44:47.527Z,45.63
2022-08-21T11:45:47.479Z,45.93
2022-08-21T11:46:47.715Z,45.51
2022-08-21T11:47:52.036Z,45.81
2022-08-21T11:48:47.534Z,44.82
2022-08-21T11:49:47.699Z,44.84
2022-08-21T11:50:47.450Z,45.36
2022-08-21T11:51:47.425Z,46.74
2022-08-21T11:52:47.422Z,47.34
2022-08-21T11:53:50.905Z,47.04
2022-08-21T11:54:47.414Z,47.24
2022-08-21T11:55:47.368Z,46.55
2022-08-21T11:56:51.686Z,46.45
2022-08-21T11:57:50.158Z,46.62
2022-08-21T11:58:47.367Z,45.93
2022-08-21T11:59:47.342Z,45.53
2022-08-21T12:00:54.510Z,44.94
2022-08-21T12:01:47.590Z,45.73
2022-08-21T12:02:47.347Z,45.71
2022-08-21T12:03:47.302Z,45.41
2022-08-21T12:04:47.311Z,46.01
2022-08-21T12:05:47.267Z,45.29
2022-08-21T12:06:47.272Z,44.90
2022-08-21T12:07:47.247Z,44.70
2022-08-21T12:08:47.259Z,44.40
2022-08-21T12:09:47.248Z,43.71
2022-08-21T12:10:47.233Z,43.69
2022-08-21T12:11:47.198Z,43.79
2022-08-21T12:12:47.215Z,43.69
2022-08-21T12:13:47.196Z,44.01
2022-08-21T12:14:48.228Z,45.29
2022-08-21T12:15:47.180Z,45.89
2022-08-21T12:16:47.185Z,44.68
2022-08-21T12:17:47.143Z,44.48
2022-08-21T12:18:47.142Z,44.60
2022-08-21T12:19:47.125Z,45.19
2022-08-21T12:20:50.831Z,44.90
2022-08-21T12:21:47.103Z,44.40
2022-08-21T12:22:47.112Z,45.19
2022-08-21T12:23:47.089Z,45.67
2022-08-21T12:24:47.089Z,44.68
2022-08-21T12:25:47.068Z,45.67
2022-08-21T12:26:47.056Z,44.97
2022-08-21T12:27:47.069Z,44.09
2022-08-21T12:28:47.053Z,44.48
2022-08-21T12:29:47.263Z,45.57
2022-08-21T12:30:47.047Z,45.15
2022-08-21T12:31:47.010Z,44.56
2022-08-21T12:32:47.002Z,42.80
2022-08-21T12:33:47.209Z,44.01
2022-08-21T12:34:47.209Z,44.62
2022-08-21T12:35:47.219Z,45.71
2022-08-21T12:36:46.984Z,46.30
2022-08-21T12:37:46.976Z,45.41
2022-08-21T12:38:46.929Z,45.12
2022-08-21T12:39:47.035Z,45.31
2022-08-21T12:40:47.206Z,44.70
2022-08-21T12:41:46.900Z,44.20
2022-08-21T12:42:58.075Z,44.70
2022-08-21T12:43:46.898Z,44.50
2022-08-21T12:44:46.882Z,45.01
2022-08-21T12:45:46.868Z,44.50
2022-08-21T12:46:46.848Z,43.41
2022-08-21T12:47:46.853Z,44.90
2022-08-21T12:48:46.834Z,44.68
2022-08-21T12:49:46.823Z,43.02
2022-08-21T12:50:48.902Z,44.42
2022-08-21T12:51:46.821Z,43.24
2022-08-21T12:52:46.842Z,42.57